Flight Track Log - Related Links

Times and Time Zones

All times are in EDT time to prevent confusion due to time zone crossing. See the SKW5631 flight status page for this flight to view local times or setup timezone preferences in your user account.

Time Position Orientation Groundspeed Altitude Reporting Facility
EDT Latitude Longitude Course Direction KTS MPH feet Rate Location/Type
Fri 09:37:17 PM 40.0000 -104.6667 346° North 262 302 9,400  Level Denver TRACON
Fri 09:38:08 PM 40.0767 -104.6631 North 286 329 11,500 2,442 Climbing Denver Center
Fri 09:39:10 PM 40.1597 -104.6856 348° North 305 351 14,000 2,419 Climbing Denver Center
Fri 09:40:12 PM 40.2531 -104.7094 349° North 316 364 16,500 2,177 Climbing Denver Center
Fri 09:41:00 PM 40.3491 -104.8275 346° North  Level FlightAware Approximate
Fri 09:41:14 PM 40.3431 -104.7328 349° North 329 379 18,500  Level Denver Center
Fri 09:42:00 PM 40.4489 -104.8607 346° North  Level FlightAware Approximate
Fri 09:42:16 PM 40.4433 -104.7600 348° North 342 394 20,000  Level Denver Center
Fri 09:43:18 PM 40.5403 -104.7858 349° North 354 407 22,000 1,500 Climbing Denver Center
Fri 09:44:20 PM 40.6386 -104.8128 348° North 359 413 23,100 1,161 Climbing Denver Center
Fri 09:45:22 PM 40.7375 -104.8414 348° North 371 427 24,400 1,500 Climbing Denver Center
Fri 09:46:24 PM 40.8536 -104.8844 344° North 374 430 26,200 1,403 Climbing Denver Center
Fri 09:47:26 PM 40.9539 -104.9331 340° North 381 438 27,300 871 Climbing Denver Center
Fri 09:48:28 PM 41.0581 -104.9831 340° North 388 447 28,000 336 Climbing Denver Center
Fri 09:49:31 PM 41.1608 -105.0333 340° North 406 467 28,000 48 Level Denver Center
Fri 09:50:33 PM 41.2864 -105.0967 339° North 430 495 28,100 484 Climbing Denver Center
Fri 09:51:35 PM 41.3956 -105.1483 340° North 434 499 29,000 1,016 Climbing Denver Center
Fri 09:52:37 PM 41.5203 -105.2119 339° North 430 495 30,200 1,113 Climbing Denver Center
Fri 09:53:39 PM 41.6158 -105.2897 329° Northwest 427 491 31,300 871 Climbing Denver Center
Fri 09:54:41 PM 41.7156 -105.3989 321° Northwest 416 479 32,000 309 Climbing Denver Center
Fri 09:55:55 PM 41.8039 -105.4931 322° Northwest 422 486 32,000  Level Denver Center
Fri 09:56:57 PM 41.9236 -105.6239 321° Northwest 431 496 32,000  Level Denver Center
Fri 09:57:59 PM 42.0122 -105.7203 321° Northwest 427 491 32,000  Level Denver Center
Fri 09:59:01 PM 42.1131 -105.8306 321° Northwest 419 482 32,000  Level Denver Center
Fri 10:00:03 PM 42.2003 -105.9283 320° Northwest 423 487 32,000  Level Denver Center
Fri 10:01:05 PM 42.3028 -106.0406 321° Northwest 424 488 32,000  Level Denver Center
Fri 10:02:07 PM 42.3894 -106.1381 320° Northwest 424 488 32,000  Level Denver Center
Fri 10:03:09 PM 42.4628 -106.2206 320° Northwest 427 491 32,000  Level Denver Center
Fri 10:04:11 PM 42.5783 -106.3500 320° Northwest 423 487 32,000  Level Denver Center
Fri 10:05:13 PM 42.6658 -106.4481 321° Northwest 425 489 32,000  Level Denver Center
Fri 10:06:15 PM 42.7672 -106.5619 321° Northwest 423 487 32,000  Level Denver Center
Fri 10:07:29 PM 42.8531 -106.6611 320° Northwest 422 486 32,000  Level Denver Center
Fri 10:08:32 PM 42.9692 -106.7906 321° Northwest 422 486 32,000  Level Denver Center
Fri 10:09:34 PM 43.0544 -106.8908 319° Northwest 422 486 32,000  Level Denver Center
Fri 10:10:36 PM 43.1583 -107.0086 320° Northwest 426 490 32,000  Level Denver Center
Fri 10:10:52 PM 43.1714 -107.0269 314° West 426 490 32,000  Level Salt Lake Center
Fri 10:11:53 PM 43.2722 -107.1433 320° Northwest 425 489 32,000  Level Salt Lake Center
Fri 10:12:52 PM 43.3592 -107.2428 320° Northwest 427 491 32,000  Level Denver Center
Fri 10:13:54 PM 43.4450 -107.3447 319° Northwest 426 490 32,000  Level Denver Center
Fri 10:14:56 PM 43.5450 -107.4622 320° Northwest 424 488 32,000  Level Denver Center
Fri 10:15:58 PM 43.6306 -107.5633 319° Northwest 423 487 32,000  Level Denver Center
Fri 10:17:00 PM 43.7322 -107.6794 320° Northwest 424 488 32,000  Level Denver Center
Fri 10:18:02 PM 43.8178 -107.7819 319° Northwest 424 488 32,000 -871 Level Denver Center
Fri 10:19:04 PM 43.9169 -107.8994 320° Northwest 420 483 30,200 -2,400 Descending Denver Center
Fri 10:20:07 PM 43.9981 -108.0022 318° Northwest 412 474 27,000 -3,339 Descending Salt Lake Center
Fri 10:21:08 PM 44.0703 -108.1436 305° West 403 464 23,300 -3,366 Descending Salt Lake Center
Fri 10:22:10 PM 44.1314 -108.2619 306° West 397 457 20,100 -3,024 Descending Salt Lake Center
Fri 10:23:11 PM 44.1897 -108.3783 305° West 388 447 17,100 -3,073 Descending Salt Lake Center
Fri 10:24:13 PM 44.2539 -108.5081 305° West 376 433 13,800 -2,758 Descending Salt Lake Center
Fri 10:25:15 PM 44.3069 -108.6064 307° West 356 410 11,400 -1,854 Descending Salt Lake Center
Fri 10:26:16 PM 44.3625 -108.7125 306° West 327 376 10,000 -780 Descending Salt Lake Center
Fri 10:27:18 PM 44.4056 -108.7936 307° West 298 343 9,800 -823 Descending Salt Lake Center
Fri 10:28:20 PM 44.4628 -108.8378 331° Northwest 264 304 8,300 -1,220 Descending Salt Lake Center
Fri 10:29:21 PM 44.5261 -108.8861 331° Northwest 242 278 7,300 -984 Descending Salt Lake Center

Login

Don't have an account? Register now (free) for customized features, flight alerts, and more!